page 4613 of 1003932 registered users

eBook PostsUsers

  1. 0cannonturn2 registered @ 2012-11-26 05:04:36, last login @ 2012-11-26 05:56:26
  2. 0laugh1chance registered @ 2012-11-26 05:06:45, last login @ 2012-11-26 05:06:45
  3. 0guestnehasharma registered @ 2012-11-26 05:07:08, last login @ 2012-11-26 05:07:08
  4. 0summer4sponge registered @ 2012-11-26 05:08:23, last login @ 2012-11-26 05:08:23
  5. 0brake0meter registered @ 2012-11-26 05:10:14, last login @ 2012-11-26 05:10:14
  6. 0scent16chain registered @ 2012-11-26 05:10:57, last login @ 2012-11-26 05:58:36
  7. 0dadgong93 registered @ 2012-11-26 05:11:25, last login @ 2012-11-26 05:11:25
  8. 0church7fall registered @ 2012-11-26 05:11:30, last login @ 2012-11-26 05:11:30
  9. 0fruit91airbus registered @ 2012-11-26 05:11:44, last login @ 2012-11-26 05:53:35
  10. 0bufferdomain8 registered @ 2012-11-26 05:11:54, last login @ 2012-11-26 05:56:00
  11. 0reason3hail registered @ 2012-11-26 05:12:36, last login @ 2012-11-26 05:43:45
  12. 0kidneymaid87 registered @ 2012-11-26 05:13:53, last login @ 2012-11-26 05:13:53
  13. 0elbowcake5 registered @ 2012-11-26 05:14:03, last login @ 2012-11-26 05:14:03
  14. 0bashee registered @ 2012-11-26 05:14:19, last login @ 2012-11-26 05:14:19
  15. 0rate7violet registered @ 2012-11-26 05:16:08, last login @ 2012-11-26 05:16:08
  16. 0boatchest51 registered @ 2012-11-26 05:16:14, last login @ 2012-11-26 05:16:14
  17. 0jokezoo8 registered @ 2012-11-26 05:18:45, last login @ 2012-11-26 05:18:45
  18. 0grouse3witch registered @ 2012-11-26 05:18:56, last login @ 2012-11-26 05:18:56
  19. 0sheep75amount registered @ 2012-11-26 05:19:57, last login @ 2012-11-26 05:19:57
  20. 0zilman7 registered @ 2012-11-26 05:19:58, last login @ 2012-11-26 05:19:58
  21. 0melodyhorn0 registered @ 2012-11-26 05:20:18, last login @ 2012-11-26 05:20:18
  22. 0JonathanJHacker registered @ 2012-11-26 05:23:13, last login @ 2012-11-26 05:30:26
  23. 0jeffdrug04 registered @ 2012-11-26 05:24:10, last login @ 2012-11-26 05:24:10
  24. 0FredHTrimble registered @ 2012-11-26 05:24:25, last login @ 2012-11-26 05:33:28
  25. 0stamp86parcel registered @ 2012-11-26 05:24:33, last login @ 2012-11-26 05:24:33
  26. 0BorisHCox registered @ 2012-11-26 05:27:49, last login @ 2012-11-26 05:37:58
  27. 0dahlia93smash registered @ 2012-11-26 05:27:56, last login @ 2012-11-26 05:27:56
  28. 0canburst0 registered @ 2012-11-26 05:28:21, last login @ 2012-11-26 05:28:21
  29. 0Siyamessi registered @ 2012-11-26 05:29:06, last login @ 2012-11-26 05:29:06
  30. 0sprout6dog registered @ 2012-11-26 05:29:26, last login @ 2012-11-26 05:29:26
  31. 0pailcough09 registered @ 2012-11-26 05:30:19, last login @ 2012-11-26 05:30:19
  32. 0cinemarun41 registered @ 2012-11-26 05:31:25, last login @ 2012-11-26 05:31:25
  33. 0veinspace87 registered @ 2012-11-26 05:32:17, last login @ 2012-11-26 05:32:17
  34. 0localseo810 registered @ 2012-11-26 05:36:24, last login @ 2012-11-26 05:36:24
  35. 0boy1person registered @ 2012-11-26 05:38:33, last login @ 2012-11-26 05:38:33
  36. 0zephyr8pastry registered @ 2012-11-26 05:39:22, last login @ 2012-11-26 05:39:22
  37. 0mondayplain0 registered @ 2012-11-26 05:40:58, last login @ 2012-11-26 05:40:58
  38. 0RooWef registered @ 2012-11-26 05:41:30, last login @ 2012-11-26 05:41:30
  39. 0biteweed26 registered @ 2012-11-26 05:42:33, last login @ 2012-11-26 05:42:33
  40. 0sportfishing360 registered @ 2012-11-26 05:43:10, last login @ 2012-11-26 05:43:10
  41. 0badge5sponge registered @ 2012-11-26 05:44:42, last login @ 2012-11-26 05:44:42
  42. 0sex9carp registered @ 2012-11-26 05:45:43, last login @ 2012-11-26 05:45:43
  43. 0alto71edge registered @ 2012-11-26 05:45:45, last login @ 2012-11-26 05:45:45
  44. 0korean3peace registered @ 2012-11-26 05:46:12, last login @ 2012-11-26 05:46:12
  45. 0callfiber74 registered @ 2012-11-26 05:46:42, last login @ 2012-11-26 05:46:42
  46. 0flagear17 registered @ 2012-11-26 05:46:42, last login @ 2012-11-26 05:46:42
  47. 0goosemodem9 registered @ 2012-11-26 05:47:29, last login @ 2012-11-26 05:47:29
  48. 0booknose9 registered @ 2012-11-26 05:50:03, last login @ 2012-11-26 05:50:03
  49. 0pine0test registered @ 2012-11-26 05:53:18, last login @ 2012-11-26 05:53:18
  50. 0canada79week registered @ 2012-11-26 05:54:21, last login @ 2012-11-26 05:54:21
  51. 0chest1peak registered @ 2012-11-26 05:58:46, last login @ 2012-11-26 05:58:46
  52. 0listray0 registered @ 2012-11-26 06:01:28, last login @ 2012-11-26 06:47:48
  53. 0marginmice3 registered @ 2012-11-26 06:02:25, last login @ 2012-11-26 06:48:26
  54. 0beech98tights registered @ 2012-11-26 06:03:24, last login @ 2012-11-26 06:03:24
  55. 0pinedriver83 registered @ 2012-11-26 06:03:43, last login @ 2012-11-26 06:03:43
  56. 0act64patch registered @ 2012-11-26 06:03:45, last login @ 2012-11-26 06:03:45
  57. 0patioparcel99 registered @ 2012-11-26 06:04:16, last login @ 2012-11-26 06:04:16
  58. 0qsfggwvh33 registered @ 2012-11-26 06:08:01, last login @ 2012-11-26 06:08:01
  59. 0school7helmet registered @ 2012-11-26 06:09:52, last login @ 2012-11-26 06:09:52
  60. 0peakminute0 registered @ 2012-11-26 06:10:14, last login @ 2012-11-26 06:10:14
  61. 0flame0close registered @ 2012-11-26 06:11:47, last login @ 2012-11-26 06:11:47
  62. 0bambooquart0 registered @ 2012-11-26 06:12:48, last login @ 2012-11-26 06:12:48
  63. 0link1check registered @ 2012-11-26 06:13:34, last login @ 2012-11-26 06:13:34
  64. 0dewsecure8 registered @ 2012-11-26 06:16:40, last login @ 2012-11-26 06:16:40
  65. 0olive3fear registered @ 2012-11-26 06:19:48, last login @ 2012-11-26 06:19:48
  66. 0theorycurve60 registered @ 2012-11-26 06:21:53, last login @ 2012-11-26 06:21:53
  67. 0coffee9guilty registered @ 2012-11-26 06:22:16, last login @ 2012-11-26 06:22:16
  68. 0bay5school registered @ 2012-11-26 06:23:10, last login @ 2012-11-26 06:23:10
  69. 0portercable99 registered @ 2012-11-26 06:23:46, last login @ 2012-11-26 06:23:46
  70. 0month41click registered @ 2012-11-26 06:28:38, last login @ 2012-11-26 06:28:38
  71. 0aunt7rifle registered @ 2012-11-26 06:28:57, last login @ 2012-11-26 06:28:57
  72. 0oceanlarch6 registered @ 2012-11-26 06:29:33, last login @ 2012-11-26 06:29:33
  73. 0design4eggnog registered @ 2012-11-26 06:29:48, last login @ 2012-11-26 06:29:48
  74. 0couch43parade registered @ 2012-11-26 06:30:44, last login @ 2012-11-26 06:30:44
  75. 0pea8tyvek registered @ 2012-11-26 06:31:00, last login @ 2012-11-26 06:31:00
  76. 0buffet98gander registered @ 2012-11-26 06:31:26, last login @ 2012-11-26 06:31:26
  77. 0bag9coast registered @ 2012-11-26 06:37:53, last login @ 2012-11-26 06:37:53
  78. 0expert7note registered @ 2012-11-26 06:40:36, last login @ 2012-11-26 06:40:36
  79. 0airbus83chive registered @ 2012-11-26 06:41:25, last login @ 2012-11-26 06:41:25
  80. 0IainJohns registered @ 2012-11-26 06:42:06, last login @ 2012-11-26 06:42:06
  81. 0blockquiver7 registered @ 2012-11-26 06:43:21, last login @ 2012-11-26 06:43:21
  82. 0lakelunge2 registered @ 2012-11-26 06:43:30, last login @ 2012-11-26 06:43:30
  83. 0claussalt36 registered @ 2012-11-26 06:43:39, last login @ 2012-11-26 06:43:39
  84. 0temple37clover registered @ 2012-11-26 06:44:00, last login @ 2012-11-26 06:44:00
  85. 0cribice3 registered @ 2012-11-26 06:44:54, last login @ 2012-11-26 06:44:54
  86. 0clam5thrill registered @ 2012-11-26 06:49:28, last login @ 2012-11-26 06:49:28
  87. 0vaultmap4 registered @ 2012-11-26 06:51:21, last login @ 2012-11-26 06:51:21
  88. 0ocean5nest registered @ 2012-11-26 06:52:07, last login @ 2012-11-26 06:52:07
  89. 0kiss70stream registered @ 2012-11-26 06:52:34, last login @ 2012-11-26 06:52:34
  90. 0Lindaxia registered @ 2012-11-26 06:55:40, last login @ 2012-11-26 06:55:40
  91. 0barberbreak05 registered @ 2012-11-26 07:01:30, last login @ 2012-11-26 07:01:30
  92. 0Zefiro4ka registered @ 2012-11-26 07:03:40, last login @ 2012-11-26 07:03:40
  93. 0ox5drawer registered @ 2012-11-26 07:04:49, last login @ 2012-11-26 07:04:49
  94. 0cip registered @ 2012-11-26 07:05:48, last login @ 2012-11-26 07:09:26
  95. 0crookcoil9 registered @ 2012-11-26 07:06:39, last login @ 2012-11-26 07:06:39
  96. 0modemwitch7 registered @ 2012-11-26 07:07:12, last login @ 2012-11-26 07:48:56
  97. 0casejapan33 registered @ 2012-11-26 07:07:23, last login @ 2012-11-26 07:48:07
  98. 0punch92alto registered @ 2012-11-26 07:08:30, last login @ 2012-11-26 07:08:30
  99. 0bubble23dragon registered @ 2012-11-26 07:08:38, last login @ 2012-11-26 07:08:38
  100. 0pairmap85 registered @ 2012-11-26 07:09:44, last login @ 2012-11-26 07:09:44
  101. 0single75peak registered @ 2012-11-26 07:10:33, last login @ 2012-11-26 07:10:33

More...

[4623] [4622] [4621] [4620] [4619] [4618] [4617] [4616] [4615] [4614] [4613] [4612] [4611] [4610] [4609] [4608] [4607] [4606] [4605] [4604] ...[1]
Back to Top